createdAt,value
2019-05-17T00:02:09.516Z,6.70
2019-05-17T00:04:40.492Z,6.12
2019-05-17T00:07:11.526Z,6.90
2019-05-17T00:09:42.559Z,8.63
2019-05-17T00:12:13.584Z,7.60
2019-05-17T00:14:44.635Z,6.75
2019-05-17T00:17:17.379Z,6.05
2019-05-17T00:19:48.764Z,6.08
2019-05-17T00:22:20.699Z,6.00
2019-05-17T00:24:51.673Z,7.62
2019-05-17T00:27:22.705Z,9.00
2019-05-17T00:29:54.242Z,7.72
2019-05-17T00:32:27.281Z,8.40
2019-05-17T00:34:57.988Z,10.13
2019-05-17T00:37:29.008Z,7.85
2019-05-17T00:40:00.488Z,7.83
2019-05-17T00:42:31.560Z,8.40
2019-05-17T00:45:02.566Z,10.50
2019-05-17T00:47:33.645Z,12.03
2019-05-17T00:50:07.436Z,11.70
2019-05-17T00:52:38.643Z,8.90
2019-05-17T00:55:09.782Z,11.55
2019-05-17T00:57:40.870Z,10.82
2019-05-17T01:00:12.168Z,8.63
2019-05-17T01:02:43.175Z,11.22
2019-05-17T01:05:16.849Z,9.63
2019-05-17T01:07:47.299Z,9.25
2019-05-17T01:10:18.414Z,7.83
2019-05-17T01:12:49.516Z,10.85
2019-05-17T01:15:20.657Z,8.20
2019-05-17T01:17:51.736Z,9.48
2019-05-17T01:20:22.779Z,9.48
2019-05-17T01:22:53.792Z,9.70
2019-05-17T01:25:27.137Z,10.13
2019-05-17T01:27:57.551Z,8.90
2019-05-17T01:30:28.568Z,11.30
2019-05-17T01:32:59.573Z,9.15
2019-05-17T01:35:30.584Z,10.05
2019-05-17T01:38:01.590Z,10.05
2019-05-17T01:40:32.657Z,12.10
2019-05-17T01:43:03.692Z,9.83
2019-05-17T01:45:36.514Z,10.05
2019-05-17T01:48:07.641Z,10.55
2019-05-17T01:50:38.666Z,9.88
2019-05-17T01:53:09.806Z,10.72
2019-05-17T01:55:40.815Z,9.40
2019-05-17T01:58:11.838Z,8.45
2019-05-17T02:00:42.859Z,10.65
2019-05-17T02:03:14.000Z,10.20
2019-05-17T02:05:47.205Z,10.10
2019-05-17T02:08:17.718Z,11.45
2019-05-17T02:10:48.766Z,10.48
2019-05-17T02:13:19.790Z,10.08
2019-05-17T02:15:50.794Z,9.83
2019-05-17T02:18:21.860Z,10.03
2019-05-17T02:20:52.846Z,9.93
2019-05-17T02:23:23.910Z,10.35
2019-05-17T02:25:56.976Z,9.00
2019-05-17T02:28:27.626Z,8.43
2019-05-17T02:30:58.730Z,9.75
2019-05-17T02:33:29.813Z,11.63
2019-05-17T02:36:02.700Z,10.70
2019-05-17T02:38:33.703Z,10.38
2019-05-17T02:41:04.739Z,10.43
2019-05-17T02:43:35.766Z,9.55
2019-05-17T02:46:07.043Z,10.30
2019-05-17T02:48:38.056Z,9.33
2019-05-17T02:51:12.807Z,10.63
2019-05-17T02:53:42.961Z,10.85
2019-05-17T02:56:14.277Z,9.68
2019-05-17T02:58:45.314Z,13.75
2019-05-17T03:01:16.340Z,11.38
2019-05-17T03:03:47.333Z,10.45
2019-05-17T03:06:18.336Z,12.68
2019-05-17T03:08:52.271Z,10.82
2019-05-17T03:11:23.287Z,11.65
2019-05-17T03:13:54.348Z,11.85
2019-05-17T03:16:25.354Z,14.28
2019-05-17T03:18:56.409Z,11.20
2019-05-17T03:21:27.409Z,10.23
2019-05-17T03:23:58.424Z,10.85
2019-05-17T03:26:32.563Z,12.35
2019-05-17T03:29:03.424Z,11.55
2019-05-17T03:31:42.335Z,12.58
2019-05-17T03:34:07.779Z,12.03
2019-05-17T03:36:38.840Z,13.10
2019-05-17T03:39:12.792Z,12.33
2019-05-17T03:41:43.018Z,11.68
2019-05-17T03:44:14.404Z,12.45
2019-05-17T03:46:45.453Z,12.63
2019-05-17T03:49:16.609Z,12.98
2019-05-17T03:51:47.670Z,14.18
2019-05-17T03:54:18.759Z,13.25
2019-05-17T03:56:53.000Z,13.22
2019-05-17T03:59:24.198Z,13.78
2019-05-17T04:01:55.310Z,13.58
2019-05-17T04:04:27.163Z,11.48
2019-05-17T04:06:58.219Z,11.97
2019-05-17T04:09:29.234Z,12.18
2019-05-17T04:12:02.938Z,13.80
2019-05-17T04:14:33.708Z,12.40
2019-05-17T04:17:06.129Z,13.93
2019-05-17T04:19:37.191Z,12.98
2019-05-17T04:22:08.225Z,10.58
2019-05-17T04:24:39.268Z,11.33
2019-05-17T04:27:13.404Z,13.03
2019-05-17T04:29:43.099Z,12.47
2019-05-17T04:32:14.149Z,12.93
2019-05-17T04:34:45.225Z,13.32
2019-05-17T04:37:16.235Z,14.23
2019-05-17T04:39:48.356Z,13.68
2019-05-17T04:42:22.426Z,14.05
2019-05-17T04:44:52.863Z,12.60
2019-05-17T04:47:24.091Z,13.03
2019-05-17T04:49:55.181Z,13.08
2019-05-17T04:52:26.983Z,12.70
2019-05-17T04:54:58.045Z,12.13
2019-05-17T04:57:32.336Z,11.57
2019-05-17T05:00:04.270Z,12.58
2019-05-17T05:02:34.494Z,12.47
2019-05-17T05:05:06.037Z,11.83
2019-05-17T05:07:37.067Z,11.00
2019-05-17T05:10:08.389Z,9.25
2019-05-17T05:12:39.412Z,9.58
2019-05-17T05:15:12.191Z,10.43
2019-05-17T05:17:43.402Z,8.58
2019-05-17T05:20:14.564Z,8.60
2019-05-17T05:22:45.616Z,7.22
2019-05-17T05:25:16.724Z,8.88
2019-05-17T05:27:47.719Z,8.40
2019-05-17T05:30:18.761Z,8.40
2019-05-17T05:32:49.775Z,7.97
2019-05-17T05:35:22.462Z,7.92
2019-05-17T05:37:53.702Z,8.28
2019-05-17T05:40:24.694Z,8.35
2019-05-17T05:42:55.656Z,7.30
2019-05-17T05:45:27.416Z,8.90
2019-05-17T05:48:01.627Z,9.78
2019-05-17T05:50:32.453Z,9.43
2019-05-17T05:53:03.883Z,9.08
2019-05-17T05:55:34.881Z,9.38
2019-05-17T05:58:05.907Z,9.18
2019-05-17T06:00:36.887Z,8.83
2019-05-17T06:03:07.965Z,9.53
2019-05-17T06:05:38.977Z,8.78
2019-05-17T06:08:12.108Z,9.45
2019-05-17T06:10:43.062Z,10.10
2019-05-17T06:13:14.262Z,9.10
2019-05-17T06:15:45.891Z,8.28
2019-05-17T06:18:16.899Z,8.95
2019-05-17T06:20:47.911Z,8.68
2019-05-17T06:23:19.499Z,8.33
2019-05-17T06:25:52.243Z,9.65
2019-05-17T06:28:23.392Z,8.53
2019-05-17T06:30:54.440Z,9.33
2019-05-17T06:33:30.685Z,8.80
2019-05-17T06:35:58.141Z,9.20
2019-05-17T06:38:29.124Z,9.53
2019-05-17T06:41:01.601Z,8.90
2019-05-17T06:43:32.848Z,9.50
2019-05-17T06:46:03.818Z,8.63
2019-05-17T06:48:34.806Z,9.50
2019-05-17T06:51:05.808Z,8.83
2019-05-17T06:53:36.779Z,8.75
2019-05-17T06:56:07.768Z,10.25
2019-05-17T06:58:38.744Z,9.80
2019-05-17T07:01:09.800Z,10.50
2019-05-17T07:03:40.815Z,9.10
2019-05-17T07:06:13.479Z,10.53
2019-05-17T07:08:44.523Z,10.00
2019-05-17T07:11:15.511Z,10.53
2019-05-17T07:13:49.500Z,9.85
2019-05-17T07:16:20.175Z,9.30
2019-05-17T07:18:51.169Z,10.03
2019-05-17T07:21:22.186Z,11.10
2019-05-17T07:23:53.194Z,10.00
2019-05-17T07:26:24.199Z,10.82
2019-05-17T07:28:55.212Z,11.05
2019-05-17T07:31:27.098Z,11.15
2019-05-17T07:33:59.841Z,10.63
2019-05-17T07:36:31.135Z,10.35
2019-05-17T07:39:02.155Z,10.78
2019-05-17T07:41:33.612Z,11.75
2019-05-17T07:44:04.627Z,11.35
2019-05-17T07:46:35.759Z,12.33
2019-05-17T07:49:07.029Z,12.35
2019-05-17T07:51:39.579Z,12.95
2019-05-17T07:54:10.771Z,12.50
2019-05-17T07:56:41.811Z,13.15
2019-05-17T07:59:12.801Z,11.75
2019-05-17T08:01:43.841Z,12.98
2019-05-17T08:04:14.853Z,13.28
2019-05-17T08:06:45.878Z,12.10
2019-05-17T08:09:16.921Z,13.48
2019-05-17T08:11:50.059Z,12.13
2019-05-17T08:14:30.011Z,11.97
2019-05-17T08:16:53.309Z,12.88
2019-05-17T08:19:24.826Z,13.05
2019-05-17T08:21:55.840Z,13.25
2019-05-17T08:24:27.119Z,14.15
2019-05-17T08:26:59.944Z,13.30
2019-05-17T08:29:31.045Z,12.00
2019-05-17T08:32:02.054Z,13.15
2019-05-17T08:34:33.119Z,14.07
2019-05-17T08:37:04.131Z,13.18
2019-05-17T08:39:35.164Z,14.23
2019-05-17T08:42:06.213Z,14.68
2019-05-17T08:44:39.267Z,13.68
2019-05-17T08:47:10.284Z,14.40
2019-05-17T08:49:41.516Z,14.35
2019-05-17T08:52:13.294Z,13.68
2019-05-17T08:54:44.358Z,14.18
2019-05-17T08:57:15.375Z,14.00
2019-05-17T08:59:49.602Z,13.85
2019-05-17T09:02:20.224Z,14.20
2019-05-17T09:04:51.278Z,13.45
2019-05-17T09:07:22.244Z,14.28
2019-05-17T09:09:53.386Z,15.70
2019-05-17T09:12:24.408Z,14.23
2019-05-17T09:14:55.450Z,14.95
2019-05-17T09:17:29.876Z,14.95
2019-05-17T09:20:00.907Z,15.43
2019-05-17T09:22:32.012Z,14.45
2019-05-17T09:25:03.421Z,14.98
2019-05-17T09:27:34.512Z,14.78
2019-05-17T09:30:09.472Z,14.83
2019-05-17T09:32:40.824Z,14.40
2019-05-17T09:35:12.058Z,14.45
2019-05-17T09:37:43.047Z,13.65
2019-05-17T09:40:14.033Z,13.78
2019-05-17T09:42:45.079Z,13.80
2019-05-17T09:45:16.156Z,11.97
2019-05-17T09:47:47.346Z,12.75
2019-05-17T09:50:20.006Z,11.18
2019-05-17T09:52:51.250Z,12.33
2019-05-17T09:55:22.298Z,12.68
2019-05-17T09:57:53.316Z,12.30
2019-05-17T10:00:25.891Z,12.20
2019-05-17T10:02:56.903Z,12.43
2019-05-17T10:05:31.015Z,11.90
2019-05-17T10:08:00.599Z,12.30
2019-05-17T10:10:32.162Z,12.03
2019-05-17T10:13:03.164Z,11.73
2019-05-17T10:15:34.189Z,13.48
2019-05-17T10:18:05.268Z,12.45
2019-05-17T10:20:36.285Z,12.73
2019-05-17T10:23:07.349Z,11.65
2019-05-17T10:25:40.054Z,10.53
2019-05-17T10:28:11.379Z,10.75
2019-05-17T10:30:42.411Z,10.45
2019-05-17T10:33:13.454Z,9.73
2019-05-17T10:35:44.508Z,9.58
2019-05-17T10:38:15.520Z,9.33
2019-05-17T10:40:47.258Z,11.28
2019-05-17T10:43:20.269Z,11.63
2019-05-17T10:45:50.928Z,11.55
2019-05-17T10:48:21.956Z,12.43
2019-05-17T10:50:53.017Z,12.20
2019-05-17T10:53:23.987Z,11.65
2019-05-17T10:55:55.069Z,11.43
2019-05-17T10:58:26.240Z,11.05
2019-05-17T11:00:57.234Z,10.55
2019-05-17T11:03:29.681Z,11.40
2019-05-17T11:06:01.025Z,9.35
2019-05-17T11:08:32.017Z,9.50
2019-05-17T11:11:03.759Z,9.75
2019-05-17T11:13:34.746Z,9.80
2019-05-17T11:16:05.711Z,9.35
2019-05-17T11:18:36.714Z,8.00
2019-05-17T11:21:07.672Z,8.35
2019-05-17T11:23:38.699Z,8.53
2019-05-17T11:26:09.678Z,9.28
2019-05-17T11:28:40.729Z,8.35
2019-05-17T11:31:11.745Z,7.75
2019-05-17T11:33:42.777Z,7.50
2019-05-17T11:36:13.773Z,7.33
2019-05-17T11:38:44.779Z,7.30
2019-05-17T11:41:21.142Z,8.35
2019-05-17T11:43:48.553Z,8.70
2019-05-17T11:46:19.613Z,8.33
2019-05-17T11:48:50.638Z,7.45
2019-05-17T11:51:21.716Z,6.53
2019-05-17T11:53:52.711Z,5.75
2019-05-17T11:56:23.714Z,6.00
2019-05-17T11:58:54.771Z,5.75
2019-05-17T12:01:26.153Z,5.83
2019-05-17T12:03:57.162Z,5.50
2019-05-17T12:06:28.200Z,5.35
2019-05-17T12:08:59.224Z,6.20
2019-05-17T12:11:30.398Z,6.35
2019-05-17T12:14:01.370Z,4.92
2019-05-17T12:16:32.478Z,5.25
2019-05-17T12:19:03.497Z,5.47
2019-05-17T12:21:34.559Z,5.15
2019-05-17T12:24:05.575Z,5.67
2019-05-17T12:26:36.671Z,4.92
2019-05-17T12:29:07.682Z,3.33
2019-05-17T12:31:38.656Z,3.08
2019-05-17T12:34:09.680Z,2.52
2019-05-17T12:36:40.743Z,2.52
2019-05-17T12:39:11.763Z,3.15
2019-05-17T12:41:42.832Z,2.60
2019-05-17T12:44:13.937Z,2.20
2019-05-17T12:46:44.988Z,2.15
2019-05-17T12:49:16.005Z,1.90
2019-05-17T12:51:47.588Z,1.92
2019-05-17T12:54:18.621Z,2.08
2019-05-17T12:56:49.617Z,2.40
2019-05-17T12:59:20.703Z,2.80
2019-05-17T13:01:51.702Z,2.95
2019-05-17T13:04:22.746Z,3.22
2019-05-17T13:06:53.760Z,3.95
2019-05-17T13:09:24.731Z,3.77
2019-05-17T13:11:55.695Z,3.60
2019-05-17T13:14:27.105Z,4.47
2019-05-17T13:16:58.100Z,4.08
2019-05-17T13:19:29.047Z,4.20
2019-05-17T13:22:00.078Z,4.10
2019-05-17T13:24:33.969Z,5.20
2019-05-17T13:27:04.939Z,3.62
2019-05-17T13:29:35.976Z,3.80
2019-05-17T13:32:07.160Z,4.15
2019-05-17T13:34:38.410Z,3.83
2019-05-17T13:37:09.397Z,4.40
2019-05-17T13:39:40.512Z,4.22
2019-05-17T13:42:11.546Z,3.90
2019-05-17T13:44:42.707Z,3.45
2019-05-17T13:47:13.759Z,2.90
2019-05-17T13:49:44.763Z,2.47
2019-05-17T13:52:15.804Z,3.05
2019-05-17T13:54:47.127Z,2.72
2019-05-17T13:57:18.175Z,3.20
2019-05-17T13:59:50.029Z,3.58
2019-05-17T14:02:21.090Z,3.08
2019-05-17T14:04:52.149Z,3.65
2019-05-17T14:07:23.167Z,4.58
2019-05-17T14:09:54.162Z,4.78
2019-05-17T14:12:25.243Z,4.72
2019-05-17T14:14:56.211Z,4.28
2019-05-17T14:17:28.620Z,4.28
2019-05-17T14:19:59.615Z,4.05
2019-05-17T14:22:30.628Z,4.50
2019-05-17T14:25:01.678Z,4.62
2019-05-17T14:27:33.066Z,4.47
2019-05-17T14:30:05.931Z,4.08
2019-05-17T14:32:36.988Z,5.10
2019-05-17T14:35:08.268Z,5.12
2019-05-17T14:37:39.452Z,5.42
2019-05-17T14:40:10.849Z,5.50
2019-05-17T14:42:41.912Z,5.37
2019-05-17T14:45:13.126Z,5.20
2019-05-17T14:47:44.197Z,4.75
2019-05-17T14:50:15.427Z,5.28
2019-05-17T14:52:47.844Z,4.62
2019-05-17T14:55:18.987Z,5.10
2019-05-17T14:57:50.065Z,4.60
2019-05-17T15:00:21.219Z,4.12
2019-05-17T15:02:52.246Z,4.83
2019-05-17T15:05:23.247Z,4.10
2019-05-17T15:07:54.280Z,5.28
2019-05-17T15:10:25.328Z,5.35
2019-05-17T15:12:56.316Z,5.28
2019-05-17T15:15:28.493Z,5.10
2019-05-17T15:17:59.478Z,5.25
2019-05-17T15:20:30.504Z,5.65
2019-05-17T15:23:01.571Z,5.92
2019-05-17T15:25:32.758Z,5.80
2019-05-17T15:28:03.796Z,5.75
2019-05-17T15:30:34.872Z,5.37
2019-05-17T15:33:05.964Z,5.87
2019-05-17T15:35:36.985Z,5.95
2019-05-17T15:38:10.932Z,6.67
2019-05-17T15:40:40.972Z,6.65
2019-05-17T15:43:12.011Z,6.55
2019-05-17T15:45:43.034Z,7.10
2019-05-17T15:48:14.037Z,6.65
2019-05-17T15:50:45.047Z,6.90
2019-05-17T15:53:16.141Z,7.42
2019-05-17T15:55:48.022Z,7.20
2019-05-17T15:58:19.093Z,7.35
2019-05-17T16:00:50.264Z,7.15
2019-05-17T16:03:21.250Z,6.97
2019-05-17T16:05:52.270Z,7.55
2019-05-17T16:08:23.699Z,7.37
2019-05-17T16:10:54.787Z,7.37
2019-05-17T16:13:25.836Z,7.33
2019-05-17T16:15:56.881Z,6.80
2019-05-17T16:18:27.934Z,6.45
2019-05-17T16:20:58.953Z,6.03
2019-05-17T16:23:29.947Z,5.70
2019-05-17T16:26:01.717Z,5.75
2019-05-17T16:28:34.367Z,5.50
2019-05-17T16:31:05.375Z,5.62
2019-05-17T16:36:08.936Z,7.40
2019-05-17T16:38:39.952Z,7.70
2019-05-17T16:41:11.055Z,9.10
2019-05-17T16:43:42.103Z,8.03
2019-05-17T16:46:13.181Z,7.95
2019-05-17T16:48:44.231Z,7.67
2019-05-17T16:51:15.260Z,8.00
2019-05-17T16:53:46.260Z,7.87
2019-05-17T16:56:17.228Z,7.28
2019-05-17T16:58:48.211Z,6.97
2019-05-17T17:01:19.182Z,8.00
2019-05-17T17:03:50.137Z,7.60
2019-05-17T17:06:21.445Z,7.15
2019-05-17T17:08:52.461Z,6.58
2019-05-17T17:11:23.505Z,7.03
2019-05-17T17:13:54.503Z,7.35
2019-05-17T17:16:25.570Z,6.55
2019-05-17T17:18:56.590Z,6.40
2019-05-17T17:21:27.858Z,6.80
2019-05-17T17:23:59.220Z,6.55
2019-05-17T17:26:30.269Z,6.40
2019-05-17T17:29:01.290Z,6.37
2019-05-17T17:31:32.270Z,6.25
2019-05-17T17:34:03.299Z,6.80
2019-05-17T17:36:34.285Z,6.47
2019-05-17T17:39:06.611Z,7.33
2019-05-17T17:41:37.635Z,6.53
2019-05-17T17:44:08.601Z,6.90
2019-05-17T17:46:39.610Z,7.22
2019-05-17T17:49:10.677Z,8.73
2019-05-17T17:51:41.819Z,8.03
2019-05-17T17:54:12.874Z,8.28
2019-05-17T17:56:44.011Z,8.08
2019-05-17T17:59:15.030Z,8.48
2019-05-17T18:01:46.103Z,7.70
2019-05-17T18:04:17.121Z,8.53
2019-05-17T18:06:48.133Z,7.83
2019-05-17T18:09:19.150Z,8.53
2019-05-17T18:11:50.184Z,7.75
2019-05-17T18:14:21.203Z,8.18
2019-05-17T18:16:52.223Z,7.50
2019-05-17T18:19:23.280Z,7.92
2019-05-17T18:21:54.321Z,9.18
2019-05-17T18:24:25.295Z,7.95
2019-05-17T18:26:56.289Z,8.20
2019-05-17T18:29:28.055Z,8.00
2019-05-17T18:31:59.176Z,9.30
2019-05-17T18:34:30.150Z,8.60
2019-05-17T18:37:01.166Z,8.08
2019-05-17T18:39:32.170Z,8.70
2019-05-17T18:42:03.214Z,7.33
2019-05-17T18:44:34.307Z,7.70
2019-05-17T18:47:05.416Z,6.55
2019-05-17T18:49:36.447Z,7.45
2019-05-17T18:52:07.544Z,6.87
2019-05-17T18:54:38.499Z,7.10
2019-05-17T18:57:09.552Z,6.22
2019-05-17T18:59:40.488Z,7.55
2019-05-17T19:02:11.509Z,7.00
2019-05-17T19:04:42.500Z,6.42
2019-05-17T19:07:13.511Z,6.03
2019-05-17T19:09:44.545Z,7.05
2019-05-17T19:12:15.767Z,6.17
2019-05-17T19:14:47.203Z,7.72
2019-05-17T19:17:19.269Z,6.78
2019-05-17T19:19:50.267Z,7.20
2019-05-17T19:22:21.241Z,7.35
2019-05-17T19:24:52.234Z,7.10
2019-05-17T19:27:23.304Z,6.62
2019-05-17T19:29:54.305Z,7.00
2019-05-17T19:32:25.275Z,7.50
2019-05-17T19:34:56.236Z,7.92
2019-05-17T19:37:28.001Z,8.45
2019-05-17T19:39:58.978Z,7.90
2019-05-17T19:42:29.969Z,8.13
2019-05-17T19:45:00.946Z,8.05
2019-05-17T19:47:31.933Z,7.30
2019-05-17T19:50:02.895Z,8.30
2019-05-17T19:52:33.889Z,8.68
2019-05-17T19:55:08.491Z,7.62
2019-05-17T19:57:39.552Z,8.10
2019-05-17T20:00:11.710Z,8.03
2019-05-17T20:02:42.713Z,8.85
2019-05-17T20:05:13.853Z,8.75
2019-05-17T20:07:45.743Z,9.03
2019-05-17T20:10:17.426Z,7.45
2019-05-17T20:12:48.424Z,8.75
2019-05-17T20:15:32.345Z,8.45
2019-05-17T20:17:52.165Z,8.28
2019-05-17T20:20:23.134Z,8.58
2019-05-17T20:22:54.166Z,9.75
2019-05-17T20:25:25.144Z,8.73
2019-05-17T20:27:56.119Z,9.00
2019-05-17T20:30:27.471Z,7.70
2019-05-17T20:32:58.450Z,8.95
2019-05-17T20:35:29.463Z,9.38
2019-05-17T20:38:00.430Z,8.93
2019-05-17T20:40:31.419Z,8.15
2019-05-17T20:43:02.544Z,9.08
2019-05-17T20:45:33.828Z,8.23
2019-05-17T20:48:04.865Z,8.85
2019-05-17T20:50:35.874Z,8.43
2019-05-17T20:53:18.270Z,8.98
2019-05-17T20:55:40.190Z,9.13
2019-05-17T20:58:11.187Z,9.58
2019-05-17T21:00:42.570Z,9.18
2019-05-17T21:03:14.017Z,9.88
2019-05-17T21:05:45.192Z,8.08
2019-05-17T21:08:16.173Z,9.20
2019-05-17T21:10:47.453Z,9.38
2019-05-17T21:13:18.526Z,9.03
2019-05-17T21:15:49.521Z,9.30
2019-05-17T21:18:20.496Z,8.73
2019-05-17T21:20:51.506Z,8.65
2019-05-17T21:23:22.496Z,9.50
2019-05-17T21:25:53.472Z,10.72
2019-05-17T21:28:24.637Z,8.90
2019-05-17T21:30:55.646Z,8.78
2019-05-17T21:33:27.970Z,9.30
2019-05-17T21:35:59.048Z,9.18
2019-05-17T21:38:30.024Z,8.33
2019-05-17T21:41:01.378Z,8.78
2019-05-17T21:43:32.352Z,8.70
2019-05-17T21:46:04.412Z,9.08
2019-05-17T21:48:35.490Z,9.60
2019-05-17T21:51:07.462Z,8.18
2019-05-17T21:53:38.428Z,9.88
2019-05-17T21:56:09.522Z,8.68
2019-05-17T21:58:40.514Z,8.38
2019-05-17T22:01:15.660Z,8.95
2019-05-17T22:03:47.759Z,9.98
2019-05-17T22:06:18.807Z,8.70
2019-05-17T22:08:49.782Z,10.48
2019-05-17T22:11:20.834Z,10.55
2019-05-17T22:13:51.801Z,9.43
2019-05-17T22:16:22.778Z,10.60
2019-05-17T22:18:53.756Z,10.30
2019-05-17T22:21:24.730Z,10.32
2019-05-17T22:23:55.703Z,10.00
2019-05-17T22:26:27.234Z,9.68
2019-05-17T22:28:58.189Z,10.30
2019-05-17T22:31:29.170Z,9.30
2019-05-17T22:34:00.154Z,10.45
2019-05-17T22:36:31.128Z,9.80
2019-05-17T22:39:02.110Z,9.53
2019-05-17T22:41:33.087Z,10.30
2019-05-17T22:44:04.068Z,9.75
2019-05-17T22:46:36.566Z,10.48
2019-05-17T22:49:07.807Z,11.25
2019-05-17T22:51:38.779Z,11.53
2019-05-17T22:54:09.824Z,10.48
2019-05-17T22:56:40.816Z,11.57
2019-05-17T22:59:11.791Z,10.70
2019-05-17T23:01:42.783Z,10.48
2019-05-17T23:04:13.773Z,10.80
2019-05-17T23:06:44.749Z,10.85
2019-05-17T23:09:15.738Z,11.35
2019-05-17T23:11:47.779Z,11.33
2019-05-17T23:14:18.774Z,11.18
2019-05-17T23:16:51.993Z,9.85
2019-05-17T23:19:22.461Z,10.50
2019-05-17T23:21:53.429Z,10.68
2019-05-17T23:24:24.440Z,11.15
2019-05-17T23:26:55.396Z,10.85
2019-05-17T23:29:28.145Z,11.43
2019-05-17T23:31:59.115Z,10.38
2019-05-17T23:34:30.102Z,10.95
2019-05-17T23:37:01.085Z,10.60
2019-05-17T23:39:32.240Z,10.93
2019-05-17T23:42:03.212Z,12.90
2019-05-17T23:44:34.197Z,11.55
2019-05-17T23:47:07.390Z,10.63
2019-05-17T23:49:37.865Z,10.75
2019-05-17T23:52:08.852Z,10.32
2019-05-17T23:54:39.825Z,10.78
2019-05-17T23:57:10.815Z,11.00
2019-05-17T23:59:41.951Z,10.40
